Flight Track Log - Related Links

Times and Time Zones

All times are in EST time to prevent confusion due to time zone crossing. See the JBU231 flight status page for this flight to view local times or setup timezone preferences in your user account.

Time Position Orientation Groundspeed Altitude Reporting Facility
EST Latitude Longitude Course Direction KTS MPH feet Rate Location/Type
Sun 03:43:05 PM 40.7945 -111.9754 356° North 167 192 4,200  Level FlightAware ADS-B
Sun 03:43:39 PM 40.8217 -111.9810 351° North 170 196 5,700 1,859 Climbing FlightAware ADS-B
Sun 03:44:16 PM 40.8310 -112.0198 288° West 211 243 6,400 1,368 Climbing FlightAware ADS-B
Sun 03:44:36 PM 40.8306 -112.0480 269° West 235 270 7,000 2,500 Climbing FlightAware ADS-B
Sun 03:44:52 PM 40.8305 -112.0710 270° West 239 275 7,900 3,474 Climbing FlightAware ADS-B
Sun 03:44:55 PM 40.8305 -112.0758 269° West 238 274 8,100 3,667 Climbing FlightAware ADS-B
Sun 03:45:10 PM 40.8304 -112.0970 270° West 237 273 9,000 3,000 Climbing FlightAware ADS-B
Sun 03:45:23 PM 40.8297 -112.1160 267° West 247 284 9,500 2,250 Climbing FlightAware ADS-B
Sun 03:45:26 PM 40.8290 -112.1210 260° West 248 285 9,600 2,000 Climbing FlightAware ADS-B
Sun 03:45:29 PM 40.8284 -112.1249 258° West 248 285 9,700 1,091 Climbing FlightAware ADS-B
Sun 03:45:37 PM 40.8263 -112.1360 256° West 247 284 9,800 1,200 Climbing FlightAware ADS-B
Sun 03:45:39 PM 40.8256 -112.1401 258° West 246 283 9,900 333 Climbing FlightAware ADS-B
Sun 03:45:55 PM 40.8213 -112.1620 255° West 247 284 9,900  Level FlightAware ADS-B
Sun 03:46:00 PM 40.8206 -112.1661 258° West 247 284 9,900 727 Level FlightAware ADS-B
Sun 03:46:28 PM 40.8121 -112.2110 256° West 246 283 10,300 938 Climbing FlightAware ADS-B
Sun 03:46:32 PM 40.8106 -112.2172 252° West 250 288 10,400 1,059 Climbing FlightAware ADS-B
Sun 03:46:45 PM 40.8029 -112.2340 239° Southwest 260 299 10,600 857 Climbing FlightAware ADS-B
Sun 03:46:53 PM 40.7959 -112.2426 223° Southwest 268 308 10,700 1,000 Climbing FlightAware ADS-B
Sun 03:46:57 PM 40.7913 -112.2470 216° Southwest 269 310 10,800 364 Climbing FlightAware ADS-B
Sun 03:47:26 PM 40.7606 -112.2696 209° Southwest 257 296 10,900 343 Climbing FlightAware ADS-B
Sun 03:47:32 PM 40.7532 -112.2740 204° Southwest 263 303 11,000 600 Climbing FlightAware ADS-B
Sun 03:47:36 PM 40.7487 -112.2756 195° South 266 306 11,000  Level FlightAware ADS-B
Sun 03:47:40 PM 40.7443 -112.2770 193° South 267 307 11,000  Level FlightAware ADS-B
Sun 03:48:14 PM 40.7029 -112.2880 191° South 272 313 11,000 250 Level FlightAware ADS-B
Sun 03:48:28 PM 40.6858 -112.2920 190° South 275 316 11,200 1,929 Climbing FlightAware ADS-B
Sun 03:48:42 PM 40.6677 -112.2951 187° South 274 315 11,900 3,484 Climbing FlightAware ADS-B
Sun 03:48:59 PM 40.6462 -112.2990 188° South 268 308 13,000 3,176 Climbing FlightAware ADS-B
Sun 03:49:16 PM 40.6256 -112.3019 186° South 263 303 13,700 2,516 Climbing FlightAware ADS-B
Sun 03:49:30 PM 40.6076 -112.3050 187° South 271 312 14,300 2,323 Climbing FlightAware ADS-B
Sun 03:49:47 PM 40.5868 -112.3083 187° South 279 321 14,900 1,784 Climbing FlightAware ADS-B
Sun 03:50:07 PM 40.5607 -112.3130 188° South 289 333 15,400 1,286 Climbing FlightAware ADS-B
Sun 03:50:29 PM 40.5284 -112.3190 188° South 312 359 15,800 1,000 Climbing FlightAware ADS-B
Sun 03:50:37 PM 40.5172 -112.3210 188° South 326 375 15,900 750 Climbing FlightAware ADS-B
Sun 03:51:01 PM 40.4799 -112.3298 190° South 343 395 16,200 800 Climbing FlightAware ADS-B
Sun 03:51:07 PM 40.4698 -112.3320 190° South 357 411 16,300 2,108 Climbing FlightAware ADS-B
Sun 03:51:38 PM 40.4194 -112.3430 189° South 363 418 17,500 2,364 Climbing FlightAware ADS-B
Sun 03:51:40 PM 40.4146 -112.3436 185° South 357 411 17,600 1,935 Climbing FlightAware ADS-B
Sun 03:52:09 PM 40.3667 -112.3540 189° South 374 430 18,500 1,935 Climbing FlightAware ADS-B
Sun 03:52:11 PM 40.3630 -112.3543 184° South 374 430 18,600 2,769 Climbing FlightAware ADS-B
Sun 03:52:22 PM 40.3445 -112.3590 191° South 371 427 19,100 2,625 Climbing FlightAware ADS-B
Sun 03:52:27 PM 40.3352 -112.3620 194° South 370 426 19,300 2,000 Climbing FlightAware ADS-B
Sun 03:52:31 PM 40.3294 -112.3649 201° Southwest 368 423 19,400 2,700 Climbing FlightAware ADS-B
Sun 03:52:47 PM 40.3052 -112.3810 207° Southwest 361 415 20,200 3,097 Climbing FlightAware ADS-B
Sun 03:53:02 PM 40.2842 -112.3954 208° Southwest 352 405 21,000 3,000 Climbing FlightAware ADS-B
Sun 03:53:17 PM 40.2618 -112.4110 208° Southwest 349 402 21,700 2,250 Climbing FlightAware ADS-B
Sun 03:53:34 PM 40.2384 -112.4281 209° Southwest 350 403 22,200 1,548 Climbing FlightAware ADS-B
Sun 03:53:48 PM 40.2188 -112.4420 208° Southwest 355 409 22,500 1,235 Climbing FlightAware ADS-B
Sun 03:54:08 PM 40.1895 -112.4630 209° Southwest 365 420 22,900 1,200 Climbing FlightAware ADS-B
Sun 03:54:18 PM 40.1744 -112.4740 209° Southwest 369 425 23,100 1,400 Climbing FlightAware ADS-B
Sun 03:54:38 PM 40.1437 -112.4955 208° Southwest 371 427 23,600 1,400 Climbing FlightAware ADS-B
Sun 03:54:48 PM 40.1279 -112.5070 209° Southwest 381 438 23,800 1,463 Climbing FlightAware ADS-B
Sun 03:55:19 PM 40.0794 -112.5410 208° Southwest 385 443 24,600 1,619 Climbing FlightAware ADS-B
Sun 03:55:51 PM 40.0299 -112.5754 208° Southwest 384 442 25,500 1,588 Climbing FlightAware ADS-B
Sun 03:55:53 PM 40.0261 -112.5780 207° Southwest 391 450 25,500 1,125 Level FlightAware ADS-B
Sun 03:56:23 PM 39.9771 -112.6130 209° Southwest 399 459 26,100 1,385 Climbing FlightAware ADS-B
Sun 03:56:32 PM 39.9625 -112.6227 207° Southwest 400 460 26,400 1,161 Climbing FlightAware ADS-B
Sun 03:56:54 PM 39.9276 -112.6470 208° Southwest 407 468 26,700 1,000 Climbing FlightAware ADS-B
Sun 03:57:02 PM 39.9159 -112.6554 209° Southwest 409 471 26,900 1,263 Climbing FlightAware ADS-B
Sun 03:57:13 PM 39.8951 -112.6700 208° Southwest 406 467 27,100 857 Climbing FlightAware ADS-B
Sun 03:57:23 PM 39.8790 -112.6812 208° Southwest 409 471 27,200 1,000 Climbing FlightAware ADS-B
Sun 03:57:25 PM 39.8755 -112.6840 211° Southwest 416 479 27,300 857 Climbing FlightAware ADS-B
Sun 03:57:58 PM 39.8193 -112.7230 208° Southwest 424 488 27,700 811 Climbing FlightAware ADS-B
Sun 03:58:02 PM 39.8107 -112.7289 208° Southwest 419 482 27,800 1,286 Climbing FlightAware ADS-B
Sun 03:58:12 PM 39.7944 -112.7403 208° Southwest 420 483 28,000 1,154 Climbing FlightAware ADS-B
Sun 03:58:28 PM 39.7655 -112.7600 208° Southwest 429 494 28,300 1,455 Climbing FlightAware ADS-B
Sun 03:58:45 PM 39.7363 -112.7805 208° Southwest 422 486 28,800 1,636 Climbing FlightAware ADS-B
Sun 03:58:50 PM 39.7271 -112.7870 209° Southwest 429 494 28,900 1,071 Climbing FlightAware ADS-B
Sun 03:59:13 PM 39.6845 -112.8110 203° Southwest 441 507 29,300 800 Climbing FlightAware ADS-B
Sun 03:59:20 PM 39.6726 -112.8164 199° South 444 511 29,300 720 Level FlightAware ADS-B
Sun 03:59:38 PM 39.6359 -112.8320 198° South 453 521 29,600 857 Climbing FlightAware ADS-B
Sun 03:59:55 PM 39.6021 -112.8431 194° South 449 517 29,800 1,000 Climbing FlightAware ADS-B
Sun 04:00:08 PM 39.5743 -112.8520 194° South 457 526 30,100 1,355 Climbing FlightAware ADS-B
Sun 04:00:26 PM 39.5384 -112.8648 195° South 450 518 30,500 1,421 Climbing FlightAware ADS-B
Sun 04:00:46 PM 39.4982 -112.8790 195° South 456 525 31,000 1,742 Climbing FlightAware ADS-B
Sun 04:00:57 PM 39.4747 -112.8867 194° South 453 521 31,400 1,548 Climbing FlightAware ADS-B
Sun 04:01:17 PM 39.4352 -112.9000 195° South 453 521 31,800 1,235 Climbing FlightAware ADS-B
Sun 04:01:31 PM 39.4050 -112.9099 194° South 445 512 32,100 1,915 Climbing FlightAware ADS-B
Sun 04:02:04 PM 39.3405 -112.9312 194° South 429 494 33,300 1,443 Climbing FlightAware ADS-B
Sun 04:02:50 PM 39.2520 -112.9602 194° South 414 476 34,000 553 Climbing FlightAware ADS-B
Sun 04:03:20 PM 39.1955 -112.9787 194° South 419 482 34,000 -2,833 Level FlightAware ADS-B
Sun 04:04:02 PM 39.1640 -112.9950 202° Southwest 458 527 30,600  Descending FlightAware ADS-B
Sun 04:04:20 PM 39.0843 -113.0143 191° South 422 486 34,000  Climbing FlightAware ADS-B
Sun 04:05:04 PM 39.0560 -113.0320 206° Southwest 458 527 30,600 -80 Descending FlightAware ADS-B
Sun 04:05:35 PM 38.9415 -113.0598 191° South 419 482 33,900 2,684 Climbing FlightAware ADS-B
Sun 04:06:20 PM 38.8595 -113.0856 194° South 420 483 34,000 -1,980 Climbing FlightAware ADS-B
Sun 04:07:15 PM 38.8280 -113.1100 211° Southwest 458 527 30,600  Descending FlightAware ADS-B
Sun 04:07:49 PM 38.6860 -113.1407 190° South 429 494 34,000  Climbing FlightAware ADS-B
Sun 04:08:30 PM 38.6970 -113.1550 315° West 458 527 30,600  Descending FlightAware ADS-B
Sun 04:08:39 PM 38.5927 -113.1700 186° South 427 491 34,000 4,080 Climbing FlightAware ADS-B
Sun 04:09:20 PM 38.5127 -113.1951 194° South 427 491 34,000 -2,082 Level FlightAware ADS-B
Sun 04:10:17 PM 38.5110 -113.2190 265° West 458 527 30,600 -2,957 Descending FlightAware ADS-B
Sun 04:10:29 PM 38.4900 -113.2260 195° South 458 527 30,600 3,400 Level FlightAware ADS-B
Sun 04:11:17 PM 38.2862 -113.2661 189° South 431 496 34,000 1,729 Climbing FlightAware ADS-B
Sun 04:12:27 PM 38.1532 -113.3075 194° South 431 496 34,000  Level FlightAware ADS-B
Sun 04:17:15 PM 37.6560 -113.5810 204° Southwest 398 458 34,000  Level FlightAware ADS-B
Sun 04:17:33 PM 37.6290 -113.6020 212° Southwest 398 458 34,000  Level FlightAware ADS-B
Sun 04:18:23 PM 37.5470 -113.6670 212° Southwest 399 459 34,000 -75 Level FlightAware ADS-B
Sun 04:18:53 PM 37.4950 -113.7070 211° Southwest 404 465 33,900  Descending FlightAware ADS-B
Sun 04:19:28 PM 37.4390 -113.7520 213° Southwest 415 478 34,000 92 Climbing FlightAware ADS-B
Sun 04:19:58 PM 37.3890 -113.7910 212° Southwest 406 467 34,000 92 Level FlightAware ADS-B
Sun 04:20:33 PM 37.3310 -113.8370 212° Southwest 406 467 34,100  Climbing FlightAware ADS-B
Sun 04:21:03 PM 37.2840 -113.8740 212° Southwest 414 476 34,000 -86 Descending FlightAware ADS-B
Sun 04:21:43 PM 37.2180 -113.9260 212° Southwest 416 479 34,000  Level FlightAware ADS-B
Sun 04:22:18 PM 37.1610 -113.9700 212° Southwest 418 481 34,000  Level FlightAware ADS-B
Sun 04:23:33 PM 37.0380 -114.0660 212° Southwest 415 478 34,000  Level FlightAware ADS-B
Sun 04:24:03 PM 36.9890 -114.1040 212° Southwest 415 478 34,000  Level FlightAware ADS-B
Sun 04:24:38 PM 36.9330 -114.1480 212° Southwest 414 476 34,000  Level FlightAware ADS-B
Sun 04:25:08 PM 36.8830 -114.1860 211° Southwest 413 475 34,000  Level FlightAware ADS-B
Sun 04:25:48 PM 36.8190 -114.2360 212° Southwest 414 476 34,000  Level FlightAware ADS-B
Sun 04:26:18 PM 36.7700 -114.2740 212° Southwest 414 476 34,000  Level FlightAware ADS-B
Sun 04:26:48 PM 36.7210 -114.3110 211° Southwest 413 475 34,000  Level FlightAware ADS-B
Sun 04:27:38 PM 36.6400 -114.3740 212° Southwest 412 474 34,000  Level FlightAware ADS-B
Sun 04:28:23 PM 36.5670 -114.4300 212° Southwest 414 476 34,000  Level FlightAware ADS-B
Sun 04:29:03 PM 36.5020 -114.4800 212° Southwest 415 478 34,000 1,263 Level FlightAware ADS-B
Sun 04:29:58 PM 36.4150 -114.5460 211° Southwest 380 437 36,000 1,143 Climbing FlightAware ADS-B
Sun 04:30:48 PM 36.3440 -114.6010 212° Southwest 379 436 36,000  Level FlightAware ADS-B
Sun 04:31:18 PM 36.2980 -114.6350 211° Southwest 379 436 36,000  Level FlightAware ADS-B
Sun 04:31:58 PM 36.2350 -114.6830 212° Southwest 379 436 36,000  Level FlightAware ADS-B
Sun 04:32:38 PM 36.1730 -114.7300 211° Southwest 384 442 36,000  Level FlightAware ADS-B
Sun 04:33:08 PM 36.1260 -114.7660 212° Southwest 381 438 36,000  Level FlightAware ADS-B
Sun 04:33:41 PM 36.0770 -114.8030 211° Southwest 379 436 36,000  Level FlightAware ADS-B
Sun 04:34:16 PM 36.0340 -114.8540 224° Southwest 372 428 36,000  Level FlightAware ADS-B
Sun 04:34:49 PM 35.9970 -114.9040 228° Southwest 373 429 36,000  Level FlightAware ADS-B
Sun 04:35:25 PM 35.9540 -114.9620 228° Southwest 374 430 36,000  Level FlightAware ADS-B
Sun 04:35:57 PM 35.9150 -115.0140 227° Southwest 387 445 36,000  Level FlightAware ADS-B
Sun 04:36:27 PM 35.8780 -115.0620 226° Southwest 387 445 36,000  Level FlightAware ADS-B
Sun 04:37:26 PM 35.8070 -115.1560 227° Southwest 384 442 36,000  Level FlightAware ADS-B
Sun 04:38:27 PM 35.7320 -115.2540 227° Southwest 387 445 36,000  Level FlightAware ADS-B
Sun 04:39:24 PM 35.6650 -115.3430 227° Southwest 386 444 36,000  Level FlightAware ADS-B
Sun 04:40:09 PM 35.6080 -115.4180 227° Southwest 387 445 36,000  Level FlightAware ADS-B
Sun 04:41:07 PM 35.5360 -115.5120 227° Southwest 389 448 36,000  Level FlightAware ADS-B
Sun 04:41:33 PM 35.5060 -115.5510 227° Southwest 383 441 36,000  Level FlightAware ADS-B
Sun 04:42:08 PM 35.4630 -115.6070 227° Southwest 383 441 36,000  Level FlightAware ADS-B
Sun 04:42:38 PM 35.4270 -115.6540 227° Southwest 383 441 36,000 -92 Level FlightAware ADS-B
Sun 04:43:13 PM 35.3820 -115.7120 226° Southwest 383 441 35,900 -635 Descending FlightAware ADS-B
Sun 04:44:03 PM 35.3210 -115.7910 227° Southwest 383 441 35,100 -1,000 Descending FlightAware ADS-B
Sun 04:44:43 PM 35.2710 -115.8570 227° Southwest 401 461 34,400 -1,013 Descending FlightAware ADS-B
Sun 04:45:20 PM 35.2260 -115.9140 226° Southwest 395 455 33,800 -960 Descending FlightAware ADS-B
Sun 04:45:58 PM 35.1780 -115.9760 227° Southwest 377 434 33,200 -986 Descending FlightAware ADS-B
Sun 04:46:33 PM 35.1330 -116.0260 222° Southwest 376 433 32,600 -1,029 Descending FlightAware ADS-B
Sun 04:47:08 PM 35.0810 -116.0690 214° Southwest 376 433 32,000 -1,015 Descending FlightAware ADS-B
Sun 04:47:38 PM 35.0380 -116.1050 214° Southwest 378 435 31,500 -918 Descending FlightAware ADS-B
Sun 04:48:33 PM 34.9590 -116.1710 214° Southwest 380 437 30,700 -971 Descending FlightAware ADS-B
Sun 04:49:23 PM 34.8920 -116.2450 222° Southwest 371 427 29,800 -1,091 Descending FlightAware ADS-B
Sun 04:50:23 PM 34.8440 -116.3570 242° Southwest 393 452 28,700 -1,345 Descending FlightAware ADS-B
Sun 04:51:19 PM 34.7920 -116.4610 239° Southwest 403 464 27,200 -1,705 Descending FlightAware ADS-B
Sun 04:51:58 PM 34.7430 -116.5280 228° Southwest 393 452 26,000 -2,018 Descending FlightAware ADS-B
Sun 04:52:23 PM 34.7220 -116.5540 226° Southwest 25,500 -2,054 Descending FlightAware ADS-B
Sun 04:55:02 PM 34.5270 -116.7950 226° Southwest 352 405 19,700 -1,749 Descending FlightAware ADS-B
Sun 04:55:42 PM 34.4880 -116.8420 225° Southwest 352 405 19,700  Level FlightAware ADS-B
Sun 04:56:18 PM 34.4520 -116.8850 225° Southwest 352 405 19,700  Level FlightAware ADS-B
Sun 04:56:54 PM 34.4170 -116.9280 225° Southwest 352 405 19,700  Level FlightAware ADS-B
Sun 04:57:32 PM 34.3800 -116.9730 225° Southwest 352 405 19,700 -5,652 Level FlightAware ADS-B
Sun 04:58:03 PM 34.3140 -117.0530 225° Southwest 335 386 13,200 -4,517 Descending FlightAware ADS-B
Sun 04:59:01 PM 34.2420 -117.1180 217° Southwest 347 399 13,000 -101 Descending FlightAware ADS-B
Sun 05:00:02 PM 34.1450 -117.1470 194° South 345 397 13,000  Level FlightAware ADS-B
Sun 05:00:57 PM 34.0608 -117.1731 194° South 336 387 13,000 -316 Level FlightAware ADS-B
Sun 05:01:37 PM 34.0026 -117.1906 194° South 315 362 12,500 -1,183 Descending FlightAware ADS-B
Sun 05:02:08 PM 33.9573 -117.2040 194° South 316 364 11,600 -1,565 Descending FlightAware ADS-B
Sun 05:02:46 PM 33.9066 -117.2270 201° Southwest 299 344 10,700 -1,440 Descending FlightAware ADS-B
Sun 05:02:58 PM 33.8971 -117.2410 231° Southwest 292 336 10,400 -1,714 Descending FlightAware ADS-B
Sun 05:03:14 PM 33.8922 -117.2529 244° Southwest 289 333 9,900 -1,364 Descending FlightAware ADS-B
Sun 05:04:04 PM 33.8630 -117.3410 248° West 288 331 8,900 -1,023 Descending FlightAware ADS-B
Sun 05:04:42 PM 33.8460 -117.3940 249° West 289 333 8,400 -727 Descending FlightAware ADS-B
Sun 05:05:10 PM 33.8310 -117.4380 248° West 287 330 8,100 -310 Descending FlightAware ADS-B
Sun 05:05:40 PM 33.8160 -117.4840 249° West 289 333 8,100  Level FlightAware ADS-B
Sun 05:06:12 PM 33.8000 -117.5300 247° West 276 318 8,100  Level FlightAware ADS-B
Sun 05:06:40 PM 33.7870 -117.5690 248° West 255 293 8,100 -689 Level FlightAware ADS-B
Sun 05:07:13 PM 33.7800 -117.6140 259° West 259 298 7,400 -1,269 Descending FlightAware ADS-B
Sun 05:07:32 PM 33.7810 -117.6420 272° West 255 293 7,000 -1,304 Descending FlightAware ADS-B
Sun 05:07:59 PM 33.7730 -117.6770 255° West 258 297 6,400 -1,200 Descending FlightAware ADS-B
Sun 05:08:27 PM 33.7590 -117.7140 246° West 250 288 5,900 -590 Descending FlightAware ADS-B
Sun 05:09:00 PM 33.7430 -117.7560 245° Southwest 250 288 5,800 -750 Descending FlightAware ADS-B
Sun 05:09:31 PM 33.7290 -117.7960 247° West 250 288 5,100 -1,091 Descending FlightAware ADS-B
Sun 05:10:06 PM 33.7130 -117.8400 246° West 237 273 4,600 -794 Descending FlightAware ADS-B
Sun 05:10:39 PM 33.6990 -117.8780 246° West 220 253 4,200 -689 Descending FlightAware ADS-B
Sun 05:11:07 PM 33.6890 -117.9080 248° West 212 244 3,900 -1,015 Descending FlightAware ADS-B
Sun 05:11:44 PM 33.6760 -117.9510 250° West 217 250 3,100 -658 Descending FlightAware ADS-B
Sun 05:12:20 PM 33.6860 -117.9910 287° West 216 249 3,100 -169 Level FlightAware ADS-B
Sun 05:12:55 PM 33.7090 -118.0200 314° West 198 228 2,900 -590 Descending FlightAware ADS-B
Sun 05:13:21 PM 33.7250 -118.0390 315° West 170 196 2,500 -889 Descending FlightAware ADS-B
Sun 05:13:49 PM 33.7390 -118.0570 313° West 151 174 2,100 -828 Descending FlightAware ADS-B
Sun 05:14:19 PM 33.7540 -118.0740 317° Northwest 150 173 1,700 -787 Descending FlightAware ADS-B
Sun 05:14:50 PM 33.7690 -118.0930 314° West 149 171 1,300 -842 Descending FlightAware ADS-B
Sun 05:15:16 PM 33.7820 -118.1080 316° Northwest 147 169 900 -857 Descending FlightAware ADS-B
Sun 05:15:46 PM 33.7960 -118.1250 315° West 145 167 500 -762 Descending FlightAware ADS-B
Sun 05:16:19 PM 33.8120 -118.1450 314° West 145 167 100 -727 Descending FlightAware ADS-B
Sun 05:16:36 PM 33.8190 -118.1520 320° Northwest 88 101 -353 Descending FlightAware ADS-B

Login

Don't have an account? Register now (free) for customized features, flight alerts, and more!